Time;durP1;ratioP1;P1;durP2;ratioP2;P2;SDS_P1;SDS_P2;PMS_P1;PMS_P2;Temp;Humidity;BMP_temperature;BMP_pressure;BME280_temperature;BME280_humidity;BME280_pressure;Samples;Min_cycle;Max_cycle;Signal;HPM_P1;HPM_P2
2021/12/01 00:00:14;;;;;;;96.70;19.10;;;3.60;99.90;;;;;;2687911;53;20581;-47
2021/12/01 00:02:52;;;;;;;107.60;22.23;;;3.60;99.90;;;;;;2688130;53;20081;-37
2021/12/01 00:05:28;;;;;;;89.28;19.67;;;3.60;99.90;;;;;;2692657;53;20469;-35
2021/12/01 00:08:00;;;;;;;89.13;19.38;;;3.50;99.90;;;;;;2687998;53;20125;-39
2021/12/01 00:10:34;;;;;;;98.63;20.35;;;3.40;99.90;;;;;;2688108;53;20078;-39
2021/12/01 00:13:09;;;;;;;98.57;18.67;;;3.40;99.90;;;;;;2692282;53;20473;-39
2021/12/01 00:15:42;;;;;;;98.97;16.77;;;3.30;99.90;;;;;;2687896;53;20070;-39
2021/12/01 00:18:15;;;;;;;73.30;15.35;;;3.40;99.90;;;;;;2692413;53;20175;-40
2021/12/01 00:20:47;;;;;;;89.00;17.65;;;3.30;99.90;;;;;;2692479;53;20549;-40
2021/12/01 00:23:19;;;;;;;103.80;20.75;;;3.30;99.90;;;;;;2691817;53;20073;-39
2021/12/01 00:25:51;;;;;;;93.45;19.10;;;3.30;99.90;;;;;;2698851;53;20545;-39
2021/12/01 00:28:23;;;;;;;105.07;22.35;;;3.30;99.90;;;;;;2698680;53;20076;-37
2021/12/01 00:30:55;;;;;;;116.85;22.70;;;3.40;99.90;;;;;;2698917;53;20142;-38
2021/12/01 00:33:27;;;;;;;106.60;22.63;;;3.40;99.90;;;;;;2689709;53;20647;-44
2021/12/01 00:35:59;;;;;;;127.85;23.58;;;3.40;99.90;;;;;;2698794;53;20088;-36
2021/12/01 00:38:35;;;;;;;109.07;22.00;;;3.40;99.90;;;;;;2698813;53;20107;-34
2021/12/01 00:41:07;;;;;;;114.00;22.27;;;3.40;99.90;;;;;;2698823;53;20183;-34
2021/12/01 00:43:40;;;;;;;112.00;23.38;;;3.50;99.90;;;;;;2698784;53;20065;-36
2021/12/01 00:46:19;;;;;;;110.80;22.25;;;3.50;99.90;;;;;;2698696;53;20073;-36
2021/12/01 00:48:51;;;;;;;111.28;22.35;;;3.50;99.90;;;;;;2687304;53;20073;-34
2021/12/01 00:51:22;;;;;;;112.38;23.30;;;3.50;99.90;;;;;;2687421;53;20066;-33
2021/12/01 00:53:54;;;;;;;124.72;22.27;;;3.60;99.90;;;;;;2687452;53;20639;-36
2021/12/01 00:56:26;;;;;;;119.57;23.80;;;3.60;99.90;;;;;;2687518;53;20070;-33
2021/12/01 00:58:58;;;;;;;107.55;23.15;;;3.70;99.90;;;;;;2687272;53;20580;-35
2021/12/01 01:01:29;;;;;;;116.72;23.50;;;3.70;99.90;;;;;;2687265;53;20147;-33
2021/12/01 01:04:01;;;;;;;109.95;21.90;;;3.70;99.90;;;;;;2687276;53;20626;-34
2021/12/01 01:06:33;;;;;;;113.90;23.77;;;3.70;99.90;;;;;;2691632;53;20082;-32
2021/12/01 01:09:06;;;;;;;113.78;22.80;;;3.70;99.90;;;;;;2687250;53;20066;-33
2021/12/01 01:17:24;;;;;;;112.85;22.30;;;3.70;99.90;;;;;;2687330;53;20066;-33
2021/12/01 01:19:55;;;;;;;106.45;21.27;;;3.70;99.90;;;;;;2687518;53;20078;-38
2021/12/01 01:22:27;;;;;;;93.70;16.90;;;3.70;99.90;;;;;;2687275;53;20117;-38
2021/12/01 01:24:59;;;;;;;73.55;14.30;;;3.70;99.90;;;;;;2688034;53;20518;-32
2021/12/01 01:27:31;;;;;;;78.97;14.90;;;3.70;99.90;;;;;;2687416;53;20113;-32
2021/12/01 01:30:04;;;;;;;95.57;19.30;;;3.70;99.90;;;;;;2686918;53;20078;-32
2021/12/01 01:32:38;;;;;;;85.68;15.65;;;3.60;99.90;;;;;;2687071;53;20070;-33
2021/12/01 01:35:10;;;;;;;100.03;21.60;;;3.70;99.90;;;;;;2687336;53;20061;-33
2021/12/01 01:37:42;;;;;;;116.38;24.27;;;3.60;99.90;;;;;;2687107;53;20538;-32
2021/12/01 01:40:14;;;;;;;110.28;23.50;;;3.70;99.90;;;;;;2687252;53;20553;-38
2021/12/01 01:42:46;;;;;;;104.57;21.50;;;3.70;99.90;;;;;;2687158;53;20151;-31
2021/12/01 01:45:17;;;;;;;109.05;22.13;;;3.70;99.90;;;;;;2682656;53;20546;-31
2021/12/01 01:47:58;;;;;;;107.63;19.08;;;3.70;99.90;;;;;;2687284;53;20131;-35
2021/12/01 01:50:38;;;;;;;95.18;19.15;;;3.70;99.90;;;;;;2686937;53;20720;-34
2021/12/01 01:53:17;;;;;;;108.82;19.80;;;3.70;99.90;;;;;;2687196;53;20089;-32
2021/12/01 01:55:54;;;;;;;105.32;20.45;;;3.60;99.90;;;;;;2687154;53;20126;-35
2021/12/01 01:58:27;;;;;;;117.85;23.02;;;3.60;99.90;;;;;;2686980;53;20070;-34
2021/12/01 02:03:39;;;;;;;67.32;13.07;;;3.70;99.90;;;;;;2686792;53;20115;-32
2021/12/01 02:06:13;;;;;;;110.47;22.77;;;3.70;99.90;;;;;;2686914;53;20078;-33
2021/12/01 02:08:45;;;;;;;106.18;16.33;;;3.70;99.90;;;;;;2686813;53;20066;-36
2021/12/01 02:11:18;;;;;;;103.30;20.00;;;3.70;99.90;;;;;;2691564;53;20101;-35
2021/12/01 02:13:50;;;;;;;96.00;19.10;;;3.70;99.90;;;;;;2686312;53;20510;-32
2021/12/01 02:16:22;;;;;;;95.50;20.02;;;3.60;99.90;;;;;;2681525;53;20856;-31
2021/12/01 02:18:54;;;;;;;111.18;22.65;;;3.60;99.90;;;;;;2681621;53;20506;-33
2021/12/01 02:21:28;;;;;;;101.90;19.92;;;3.60;99.90;;;;;;2677018;53;20120;-34
2021/12/01 02:24:10;;;;;;;101.65;21.13;;;3.60;99.90;;;;;;2681616;53;20063;-33
2021/12/01 02:26:46;;;;;;;84.85;17.27;;;3.60;99.90;;;;;;2676977;53;20530;-32
2021/12/01 02:29:23;;;;;;;109.68;22.52;;;3.60;99.90;;;;;;2676838;53;20639;-35
2021/12/01 02:31:55;;;;;;;107.40;21.10;;;3.60;99.90;;;;;;2677242;53;20086;-35
2021/12/01 02:34:27;;;;;;;96.35;19.05;;;3.50;99.90;;;;;;2676952;53;20098;-33
2021/12/01 02:36:59;;;;;;;90.90;18.55;;;3.50;99.90;;;;;;2672827;53;20066;-33
2021/12/01 02:39:31;;;;;;;75.60;16.10;;;3.40;99.90;;;;;;2681702;53;20117;-32
2021/12/01 02:42:08;;;;;;;66.80;13.65;;;3.40;99.90;;;;;;2676990;53;20134;-32
2021/12/01 02:44:39;;;;;;;85.95;17.58;;;3.40;99.90;;;;;;2680930;53;20449;-36
2021/12/01 02:47:12;;;;;;;23.98;4.78;;;3.40;99.90;;;;;;2688132;53;20100;-37
2021/12/01 02:49:44;;;;;;;75.35;14.13;;;3.30;99.90;;;;;;2687509;53;20109;-33
2021/12/01 02:52:15;;;;;;;87.35;17.45;;;3.30;99.90;;;;;;2687782;53;20077;-33
2021/12/01 02:54:47;;;;;;;103.40;19.30;;;3.30;99.90;;;;;;2692193;53;20062;-32
2021/12/01 02:57:19;;;;;;;98.20;18.02;;;3.30;99.90;;;;;;2683263;53;20086;-34
2021/12/01 02:59:51;;;;;;;101.82;20.08;;;3.30;99.90;;;;;;2687614;53;20062;-32
2021/12/01 03:02:23;;;;;;;105.18;22.48;;;3.30;99.90;;;;;;2692209;53;20074;-33
2021/12/01 03:04:55;;;;;;;103.18;21.50;;;3.30;99.90;;;;;;2683242;53;20683;-34
2021/12/01 03:07:26;;;;;;;104.68;20.77;;;3.30;99.90;;;;;;2687655;53;20070;-34
2021/12/01 03:09:58;;;;;;;105.13;19.60;;;3.30;99.90;;;;;;2692050;53;20500;-36
2021/12/01 03:12:32;;;;;;;110.93;23.02;;;3.30;99.90;;;;;;2692386;53;20074;-34
2021/12/01 03:15:06;;;;;;;173.10;17.63;;;3.30;99.90;;;;;;2683923;53;20074;-34
2021/12/01 03:17:38;;;;;;;115.20;16.27;;;3.20;99.90;;;;;;2687839;53;20070;-34
2021/12/01 03:20:11;;;;;;;225.57;19.33;;;3.20;99.90;;;;;;2687844;53;20070;-36
2021/12/01 03:22:43;;;;;;;153.30;18.45;;;3.10;99.90;;;;;;2676635;53;20129;-35
2021/12/01 03:25:15;;;;;;;202.57;20.00;;;3.10;99.90;;;;;;2681369;53;20078;-37
2021/12/01 03:27:47;;;;;;;289.55;18.80;;;3.10;99.90;;;;;;2676887;53;20074;-35
2021/12/01 03:30:19;;;;;;;237.48;17.15;;;3.10;99.90;;;;;;2681191;53;20126;-36
2021/12/01 03:32:52;;;;;;;176.90;17.60;;;3.10;99.90;;;;;;2676558;53;20082;-35
2021/12/01 03:35:23;;;;;;;150.70;20.42;;;3.10;99.90;;;;;;2671904;53;20090;-33
2021/12/01 03:37:55;;;;;;;110.10;15.07;;;3.10;99.90;;;;;;2672559;53;20078;-34
2021/12/01 03:40:27;;;;;;;102.80;19.13;;;3.10;99.90;;;;;;2676523;53;20134;-35
2021/12/01 03:42:59;;;;;;;372.10;22.50;;;3.10;99.90;;;;;;2676694;53;20431;-38
2021/12/01 03:45:31;;;;;;;305.45;21.20;;;3.10;99.90;;;;;;2681433;53;20121;-35
2021/12/01 03:48:03;;;;;;;260.77;21.63;;;3.10;99.90;;;;;;2684052;53;20073;-36
2021/12/01 03:50:36;;;;;;;284.38;21.50;;;3.10;99.90;;;;;;2688084;53;20549;-35
2021/12/01 03:53:07;;;;;;;309.30;22.10;;;3.20;99.90;;;;;;2692592;53;20543;-36
2021/12/01 03:55:39;;;;;;;162.27;11.88;;;3.20;99.90;;;;;;2687842;53;20069;-34
2021/12/01 03:58:11;;;;;;;230.77;13.60;;;3.10;99.90;;;;;;2692691;53;20442;-34
2021/12/01 04:00:44;;;;;;;202.50;14.00;;;3.00;99.90;;;;;;2700082;53;20464;-35
2021/12/01 04:03:16;;;;;;;36.95;3.13;;;3.00;99.90;;;;;;2699005;53;20463;-36
2021/12/01 04:05:48;;;;;;;245.60;18.02;;;3.00;99.90;;;;;;2698787;53;20065;-36
2021/12/01 04:08:20;;;;;;;183.10;16.27;;;3.00;99.90;;;;;;2698566;53;20081;-35
2021/12/01 04:10:52;;;;;;;188.10;14.02;;;3.00;99.90;;;;;;2694475;53;20073;-34
2021/12/01 04:13:23;;;;;;;113.93;11.68;;;3.00;99.90;;;;;;2698646;53;20117;-36
2021/12/01 04:15:55;;;;;;;91.57;8.05;;;2.90;99.90;;;;;;2698763;53;20077;-33
2021/12/01 04:18:27;;;;;;;130.43;13.93;;;2.90;99.90;;;;;;2698885;53;20123;-36
2021/12/01 04:20:59;;;;;;;84.75;10.20;;;2.90;99.90;;;;;;2698858;53;20141;-36
2021/12/01 04:23:34;;;;;;;151.15;16.77;;;2.90;99.90;;;;;;2698984;53;20073;-38
2021/12/01 04:26:11;;;;;;;123.25;17.88;;;2.90;99.90;;;;;;2699011;53;20575;-37
2021/12/01 04:28:43;;;;;;;117.68;15.60;;;2.90;99.90;;;;;;2698663;53;20084;-36
2021/12/01 04:31:14;;;;;;;144.05;15.82;;;2.90;99.90;;;;;;2698784;53;20436;-36
2021/12/01 04:33:47;;;;;;;127.30;18.45;;;2.90;99.90;;;;;;2698926;53;20512;-35
2021/12/01 04:36:20;;;;;;;107.22;19.08;;;2.90;99.90;;;;;;2687415;53;20089;-36
2021/12/01 04:38:52;;;;;;;93.53;17.75;;;2.90;99.90;;;;;;2692318;53;20093;-36
2021/12/01 04:41:26;;;;;;;93.28;18.90;;;3.00;99.90;;;;;;2692160;53;20514;-34
2021/12/01 04:44:00;;;;;;;98.88;19.55;;;3.00;99.90;;;;;;2692323;53;20545;-34
2021/12/01 04:46:38;;;;;;;102.00;20.45;;;3.00;99.90;;;;;;2691680;53;20486;-33
2021/12/01 04:49:11;;;;;;;87.28;18.83;;;3.00;99.90;;;;;;2681045;53;20108;-35
2021/12/01 04:51:47;;;;;;;100.40;21.80;;;3.00;99.90;;;;;;2676514;53;20071;-35
2021/12/01 04:54:19;;;;;;;84.85;18.27;;;3.10;99.90;;;;;;2676213;53;20066;-34
2021/12/01 04:56:51;;;;;;;87.50;19.83;;;3.10;99.90;;;;;;2676379;53;20136;-34
2021/12/01 04:59:23;;;;;;;101.00;20.42;;;3.10;99.90;;;;;;2680650;53;20075;-35
2021/12/01 05:01:56;;;;;;;93.43;20.15;;;3.10;99.90;;;;;;2672126;53;20142;-34
2021/12/01 05:04:28;;;;;;;78.22;19.30;;;3.00;99.90;;;;;;2676222;53;20078;-35
2021/12/01 05:06:59;;;;;;;96.38;19.88;;;3.10;99.90;;;;;;2679689;53;20542;-34
2021/12/01 05:09:31;;;;;;;96.70;19.27;;;3.10;99.90;;;;;;2686902;53;20530;-35
2021/12/01 05:12:06;;;;;;;91.40;19.02;;;3.00;99.90;;;;;;2687096;53;20066;-34
2021/12/01 05:14:39;;;;;;;84.13;19.73;;;3.10;99.90;;;;;;2682848;53;20184;-35
2021/12/01 05:17:10;;;;;;;85.03;16.63;;;3.10;99.90;;;;;;2682820;53;20074;-35
2021/12/01 05:19:42;;;;;;;93.05;18.52;;;3.00;99.90;;;;;;2687085;53;20070;-35
2021/12/01 05:22:14;;;;;;;58.80;10.35;;;2.90;99.90;;;;;;2687192;53;20510;-36
2021/12/01 05:24:46;;;;;;;87.85;17.83;;;2.90;99.90;;;;;;2682717;53;20074;-36
2021/12/01 05:27:18;;;;;;;83.85;18.85;;;2.90;99.90;;;;;;2687012;53;20066;-37
2021/12/01 05:29:50;;;;;;;89.28;18.35;;;2.90;99.90;;;;;;2682481;53;20136;-36
2021/12/01 05:32:22;;;;;;;81.90;17.30;;;2.80;99.90;;;;;;2691755;53;20070;-35
2021/12/01 05:34:54;;;;;;;69.82;16.35;;;2.80;99.90;;;;;;2687141;53;20070;-35
2021/12/01 05:37:26;;;;;;;59.92;14.25;;;2.70;99.90;;;;;;2687272;53;20085;-34
2021/12/01 05:39:58;;;;;;;91.55;19.83;;;2.70;99.90;;;;;;2692002;53;20108;-35
2021/12/01 05:42:31;;;;;;;78.63;16.35;;;2.70;99.90;;;;;;2687487;53;20085;-38
2021/12/01 05:45:04;;;;;;;93.72;18.60;;;2.60;99.90;;;;;;2687503;53;20066;-36
2021/12/01 05:47:35;;;;;;;82.72;20.15;;;2.60;99.90;;;;;;2687260;53;20102;-37
2021/12/01 05:50:07;;;;;;;75.47;17.90;;;2.50;99.90;;;;;;2678028;53;20081;-37
2021/12/01 05:52:39;;;;;;;74.22;18.00;;;2.50;99.90;;;;;;2682635;53;20185;-39
2021/12/01 05:55:11;;;;;;;78.03;19.95;;;2.40;99.90;;;;;;2681612;53;20067;-40
2021/12/01 05:57:43;;;;;;;79.88;18.90;;;2.40;99.90;;;;;;2681498;53;20070;-36
2021/12/01 06:00:16;;;;;;;68.93;18.47;;;2.50;99.90;;;;;;2677271;53;20104;-39
2021/12/01 06:02:52;;;;;;;81.65;20.00;;;2.50;99.90;;;;;;2681655;53;20070;-37
2021/12/01 06:05:24;;;;;;;83.45;20.33;;;2.40;99.90;;;;;;2681605;53;20534;-37
2021/12/01 06:07:55;;;;;;;69.90;17.17;;;2.40;99.90;;;;;;2681783;53;20089;-38
2021/12/01 06:10:27;;;;;;;72.68;18.38;;;2.40;99.90;;;;;;2681695;53;20517;-36
2021/12/01 06:12:59;;;;;;;69.15;17.92;;;2.40;99.90;;;;;;2681548;53;20073;-39
2021/12/01 06:15:31;;;;;;;69.65;18.38;;;2.30;99.90;;;;;;2682631;53;20128;-39
2021/12/01 06:18:03;;;;;;;75.80;18.30;;;2.20;99.90;;;;;;2687428;53;20542;-39
2021/12/01 06:20:35;;;;;;;69.38;18.25;;;2.20;99.90;;;;;;2682542;53;20078;-37
2021/12/01 06:23:07;;;;;;;91.65;24.30;;;2.20;99.90;;;;;;2687133;53;20081;-37
2021/12/01 06:25:39;;;;;;;84.20;20.95;;;2.30;99.90;;;;;;2683321;53;20104;-36
2021/12/01 06:28:10;;;;;;;79.15;18.73;;;2.30;99.90;;;;;;2687051;53;20074;-37
2021/12/01 06:30:42;;;;;;;78.18;18.30;;;2.20;99.90;;;;;;2686889;53;20524;-38
2021/12/01 06:33:14;;;;;;;81.05;20.58;;;2.20;99.90;;;;;;2682736;53;20450;-36
2021/12/01 06:35:49;;;;;;;81.00;20.35;;;2.30;99.90;;;;;;2682485;53;20093;-38
2021/12/01 06:38:21;;;;;;;89.30;22.77;;;2.30;99.90;;;;;;2682605;53;20517;-38
2021/12/01 06:40:53;;;;;;;98.50;25.63;;;2.30;99.90;;;;;;2682563;53;20097;-38
2021/12/01 06:43:25;;;;;;;91.38;26.13;;;2.50;99.90;;;;;;2687168;53;20066;-38
2021/12/01 06:45:56;;;;;;;85.32;27.63;;;2.60;99.90;;;;;;2682688;53;20562;-42
2021/12/01 06:48:28;;;;;;;87.57;23.15;;;2.70;99.90;;;;;;2691912;53;20572;-37
2021/12/01 06:51:00;;;;;;;78.65;22.45;;;2.60;99.90;;;;;;2698438;53;20058;-37
2021/12/01 06:53:32;;;;;;;73.07;19.42;;;2.60;99.90;;;;;;2698206;53;20548;-39
2021/12/01 06:56:04;;;;;;;78.18;20.73;;;2.60;99.90;;;;;;2698252;52;20080;-36
2021/12/01 06:58:37;;;;;;;72.97;21.02;;;2.60;99.90;;;;;;2698521;53;20146;-39
2021/12/01 07:01:09;;;;;;;72.90;21.70;;;2.60;99.90;;;;;;2698218;53;20164;-37
2021/12/01 07:03:41;;;;;;;69.82;21.50;;;2.60;99.90;;;;;;2698482;53;20093;-39
2021/12/01 07:06:13;;;;;;;83.68;22.10;;;2.70;99.90;;;;;;2702085;53;20065;-37
2021/12/01 07:08:44;;;;;;;82.05;22.00;;;2.70;99.90;;;;;;2694394;53;20122;-38
2021/12/01 07:11:16;;;;;;;74.63;22.13;;;2.60;99.90;;;;;;2699038;53;20477;-38
2021/12/01 07:13:48;;;;;;;72.80;20.85;;;2.70;99.90;;;;;;2698818;53;20146;-37
2021/12/01 07:16:20;;;;;;;69.38;20.77;;;2.70;99.90;;;;;;2698903;53;20077;-43
2021/12/01 07:18:52;;;;;;;66.97;21.55;;;2.70;99.90;;;;;;2703597;52;20529;-36
2021/12/01 07:21:23;;;;;;;59.53;21.02;;;2.80;99.90;;;;;;2699083;53;20536;-40
2021/12/01 07:23:55;;;;;;;58.83;20.00;;;2.80;99.90;;;;;;2694522;53;20073;-37
2021/12/01 07:26:27;;;;;;;61.47;20.40;;;2.90;99.90;;;;;;2698905;53;20073;-37
2021/12/01 07:28:59;;;;;;;60.75;18.77;;;2.90;99.90;;;;;;2698610;53;20142;-36
2021/12/01 07:31:31;;;;;;;60.20;17.00;;;2.70;99.90;;;;;;2692339;53;20073;-36
2021/12/01 07:34:03;;;;;;;75.05;19.00;;;2.60;99.90;;;;;;2687901;53;20156;-39
2021/12/01 07:36:35;;;;;;;66.05;17.48;;;2.60;99.90;;;;;;2687831;53;20614;-37
2021/12/01 07:39:07;;;;;;;63.05;17.38;;;2.50;99.90;;;;;;2687681;53;20073;-38
2021/12/01 07:41:39;;;;;;;62.78;18.15;;;2.40;99.90;;;;;;2692938;53;20058;-37
2021/12/01 07:44:10;;;;;;;64.53;18.60;;;2.40;99.90;;;;;;2687838;53;20073;-37
2021/12/01 07:46:42;;;;;;;72.22;18.45;;;2.50;99.90;;;;;;2687593;53;20074;-38
2021/12/01 07:49:14;;;;;;;68.00;20.75;;;2.50;99.90;;;;;;2682105;53;20077;-36
2021/12/01 07:51:46;;;;;;;64.65;20.25;;;2.50;99.90;;;;;;2682348;53;20066;-37
2021/12/01 07:54:18;;;;;;;73.80;21.52;;;2.60;99.90;;;;;;2686858;53;20118;-38
2021/12/01 07:56:50;;;;;;;70.57;20.35;;;2.60;99.90;;;;;;2682148;53;20112;-34
2021/12/01 07:59:21;;;;;;;72.47;17.92;;;2.70;99.90;;;;;;2686936;53;20070;-52
2021/12/01 08:01:53;;;;;;;62.22;14.48;;;2.60;99.90;;;;;;2682034;53;20112;-40
2021/12/01 08:04:25;;;;;;;75.97;17.65;;;2.50;99.90;;;;;;2686521;53;20491;-41
2021/12/01 08:06:57;;;;;;;63.25;16.90;;;2.50;99.90;;;;;;2669537;53;20618;-42
2021/12/01 08:09:29;;;;;;;64.60;17.80;;;2.50;99.90;;;;;;2677608;53;20146;-40
2021/12/01 08:12:01;;;;;;;73.03;17.58;;;2.50;99.90;;;;;;2675195;53;20571;-39
2021/12/01 08:14:33;;;;;;;64.28;16.92;;;2.50;99.90;;;;;;2675470;53;20535;-39
2021/12/01 08:17:05;;;;;;;106.53;31.40;;;2.60;99.90;;;;;;2675345;53;20071;-39
2021/12/01 08:19:36;;;;;;;90.00;24.08;;;2.70;99.90;;;;;;2670807;53;20067;-39
2021/12/01 08:22:09;;;;;;;78.57;20.50;;;2.70;99.90;;;;;;2670792;53;20582;-43
2021/12/01 08:24:41;;;;;;;78.57;20.83;;;2.70;99.90;;;;;;2675100;53;20075;-38
2021/12/01 08:27:15;;;;;;;69.35;20.60;;;2.60;99.90;;;;;;2666126;53;20134;-38
2021/12/01 08:29:47;;;;;;;83.00;23.95;;;2.70;99.90;;;;;;2674996;53;20094;-38
2021/12/01 08:32:19;;;;;;;79.55;23.75;;;2.80;99.90;;;;;;2670768;53;20078;-38
2021/12/01 08:34:51;;;;;;;76.22;22.52;;;2.90;99.90;;;;;;2675495;53;20091;-37
2021/12/01 08:37:23;;;;;;;79.82;23.95;;;2.90;99.90;;;;;;2679094;53;20173;-39
2021/12/01 08:39:55;;;;;;;71.75;20.25;;;3.00;99.90;;;;;;2691503;53;20128;-44
2021/12/01 08:42:26;;;;;;;67.50;18.17;;;2.90;99.80;;;;;;2687147;53;20534;-38
2021/12/01 08:44:58;;;;;;;69.07;20.90;;;2.80;98.80;;;;;;2691730;53;20139;-40
2021/12/01 08:47:31;;;;;;;62.25;18.98;;;2.80;99.40;;;;;;2691997;53;20080;-41
2021/12/01 08:50:07;;;;;;;75.93;24.98;;;2.80;99.00;;;;;;2692220;53;20057;-39
2021/12/01 08:52:39;;;;;;;72.53;23.13;;;2.90;99.90;;;;;;2687744;53;20111;-40
2021/12/01 08:55:11;;;;;;;67.05;20.05;;;2.90;99.90;;;;;;2687463;53;20070;-37
2021/12/01 08:57:43;;;;;;;69.25;21.40;;;3.00;99.90;;;;;;2687526;53;20069;-41
2021/12/01 09:00:16;;;;;;;63.33;20.63;;;3.00;99.90;;;;;;2687638;53;20065;-36
2021/12/01 09:02:48;;;;;;;62.55;18.55;;;3.00;99.90;;;;;;2696709;53;20076;-36
2021/12/01 09:05:20;;;;;;;64.93;19.83;;;2.90;99.30;;;;;;2687666;53;20076;-37
2021/12/01 09:07:51;;;;;;;68.15;19.00;;;2.90;99.40;;;;;;2687542;53;20054;-36
2021/12/01 09:10:23;;;;;;;60.75;19.42;;;2.90;99.30;;;;;;2687503;53;20140;-37
2021/12/01 09:12:55;;;;;;;61.85;18.40;;;2.80;99.10;;;;;;2691868;53;20081;-41
2021/12/01 09:15:27;;;;;;;54.47;15.80;;;2.70;99.90;;;;;;2687464;53;20224;-38
2021/12/01 09:17:59;;;;;;;54.03;15.02;;;2.60;99.90;;;;;;2687381;53;20100;-36
2021/12/01 09:20:31;;;;;;;56.05;17.30;;;2.40;99.90;;;;;;2689622;53;20087;-37
2021/12/01 09:23:03;;;;;;;46.75;15.77;;;2.50;99.90;;;;;;2693897;53;20515;-36
2021/12/01 09:25:36;;;;;;;56.17;16.35;;;2.60;99.90;;;;;;2693783;53;20088;-37
2021/12/01 09:28:07;;;;;;;48.10;14.85;;;2.50;99.90;;;;;;2698334;53;20072;-37
2021/12/01 09:30:40;;;;;;;51.42;15.57;;;2.50;99.90;;;;;;2697893;53;20149;-38
2021/12/01 09:33:12;;;;;;;48.35;14.85;;;2.30;99.90;;;;;;2698277;53;20582;-38
2021/12/01 09:35:44;;;;;;;48.58;15.98;;;2.30;99.90;;;;;;2698491;53;20073;-36
2021/12/01 09:38:17;;;;;;;46.70;15.00;;;2.30;99.90;;;;;;2694053;53;20125;-37
2021/12/01 09:40:53;;;;;;;56.33;18.17;;;2.20;99.90;;;;;;2698143;53;20073;-36
2021/12/01 09:43:27;;;;;;;62.92;19.65;;;2.20;99.90;;;;;;2698298;53;20065;-37
2021/12/01 09:46:01;;;;;;;65.47;18.00;;;2.10;99.90;;;;;;2698286;53;20122;-40
2021/12/01 09:48:34;;;;;;;58.85;17.70;;;2.10;99.90;;;;;;2683754;53;20104;-39
2021/12/01 09:51:06;;;;;;;57.70;19.75;;;2.10;99.90;;;;;;2682483;53;20074;-37
2021/12/01 09:53:38;;;;;;;62.20;17.45;;;2.20;99.90;;;;;;2686901;53;20455;-37
2021/12/01 09:56:10;;;;;;;59.20;16.85;;;2.10;99.90;;;;;;2686960;53;20067;-38
2021/12/01 09:58:45;;;;;;;63.95;18.88;;;2.10;99.90;;;;;;2686617;53;20086;-39
2021/12/01 10:01:18;;;;;;;;;;;2.10;99.90;;;;;;2687416;53;20081;-39
2021/12/01 10:03:51;;;;;;;57.78;16.50;;;2.00;99.90;;;;;;2691479;53;19976;-39
2021/12/01 10:06:24;;;;;;;16.02;5.00;;;1.90;99.90;;;;;;2686865;53;20131;-41
2021/12/01 10:09:07;;;;;;;37.70;11.60;;;1.80;99.90;;;;;;2687098;53;20066;-41
2021/12/01 10:11:41;;;;;;;6.27;3.33;;;1.70;99.90;;;;;;2686958;53;20074;-38
2021/12/01 10:14:21;;;;;;;5.03;1.90;;;1.60;99.90;;;;;;2686949;53;20070;-38
2021/12/01 10:16:54;;;;;;;6.03;3.00;;;1.50;99.90;;;;;;2686849;53;20558;-41
2021/12/01 10:19:28;;;;;;;38.97;12.85;;;1.40;99.90;;;;;;2686793;53;20066;-44
2021/12/01 10:21:59;;;;;;;25.30;8.85;;;1.40;99.90;;;;;;2687140;53;20533;-51
2021/12/01 10:24:30;;;;;;;55.40;14.73;;;1.40;99.90;;;;;;2686675;53;20157;-42
2021/12/01 10:27:04;;;;;;;59.40;15.80;;;1.40;99.90;;;;;;2682167;53;20415;-41
2021/12/01 10:29:40;;;;;;;58.63;17.30;;;1.40;99.90;;;;;;2681645;53;20520;-44
2021/12/01 10:32:07;;;;;;;42.80;12.07;;;1.40;99.90;;;;;;2686659;53;20066;-40
2021/12/01 10:34:40;;;;;;;69.00;18.13;;;1.40;99.90;;;;;;2687694;53;20445;-41
2021/12/01 10:37:31;;;;;;;11.23;5.67;;;1.40;99.90;;;;;;2687325;53;20082;-40
2021/12/01 10:40:10;;;;;;;21.98;6.00;;;1.40;99.90;;;;;;2678049;53;20129;-36
2021/12/01 10:43:01;;;;;;;22.10;7.43;;;1.40;99.90;;;;;;2687371;53;20074;-35
2021/12/01 10:45:36;;;;;;;18.50;8.47;;;1.30;99.90;;;;;;2687227;53;20059;-39
2021/12/01 10:48:06;;;;;;;13.73;6.07;;;1.20;99.90;;;;;;2690405;53;20057;-36
2021/12/01 10:50:41;;;;;;;15.35;8.13;;;1.10;99.90;;;;;;2698421;53;20098;-35
2021/12/01 10:53:10;;;;;;;18.60;9.98;;;1.10;99.90;;;;;;2698638;53;20116;-33
2021/12/01 10:56:04;;;;;;;21.42;11.10;;;1.10;99.90;;;;;;2698738;53;20633;-32
2021/12/01 10:58:36;;;;;;;24.43;14.77;;;1.10;99.90;;;;;;2698400;53;20066;-34
2021/12/01 11:01:06;;;;;;;27.80;15.23;;;1.10;99.90;;;;;;2693836;53;20555;-37
2021/12/01 11:03:36;;;;;;;27.30;14.80;;;1.10;99.90;;;;;;2688253;53;20074;-34
2021/12/01 11:06:20;;;;;;;22.63;13.77;;;1.10;99.90;;;;;;2693513;53;20563;-39
2021/12/01 11:08:56;;;;;;;26.20;15.57;;;1.10;99.90;;;;;;2693338;53;20157;-46
2021/12/01 11:11:25;;;;;;;17.97;9.37;;;1.10;99.90;;;;;;2693371;53;20061;-35
2021/12/01 11:13:52;;;;;;;24.37;13.90;;;1.10;99.90;;;;;;2684064;53;20147;-37
2021/12/01 11:16:19;;;;;;;11.60;6.70;;;1.20;99.90;;;;;;2693220;53;20062;-44
2021/12/01 11:18:50;;;;;;;20.93;8.90;;;1.10;99.90;;;;;;2693362;53;20537;-42
2021/12/01 11:21:22;;;;;;;14.43;5.73;;;1.20;99.90;;;;;;2693425;53;20069;-34
2021/12/01 11:23:52;;;;;;;66.03;20.27;;;1.20;99.90;;;;;;2688648;53;20529;-48
2021/12/01 11:26:24;;;;;;;96.97;25.73;;;1.20;99.90;;;;;;2688687;53;20126;-39
2021/12/01 11:29:00;;;;;;;94.50;24.20;;;1.30;99.90;;;;;;2693217;53;20128;-38
2021/12/01 11:31:41;;;;;;;36.70;10.90;;;1.40;99.90;;;;;;2688477;53;20176;-38
2021/12/01 11:34:13;;;;;;;50.73;12.93;;;1.40;99.90;;;;;;2694621;53;20073;-40
2021/12/01 11:36:51;;;;;;;65.73;16.67;;;1.30;99.90;;;;;;2698336;53;20065;-37
2021/12/01 11:39:22;;;;;;;62.87;14.90;;;1.30;99.90;;;;;;2698727;53;20119;-37
2021/12/01 11:41:51;;;;;;;4.10;2.33;;;1.30;99.90;;;;;;2698766;53;20069;-35
2021/12/01 11:44:19;;;;;;;13.85;5.40;;;1.30;99.90;;;;;;2698384;53;20072;-42
2021/12/01 11:46:48;;;;;;;9.37;4.50;;;1.20;99.90;;;;;;2697708;53;20133;-47
2021/12/01 11:49:16;;;;;;;10.27;4.13;;;1.10;99.90;;;;;;2697362;53;20099;-41
2021/12/01 11:51:47;;;;;;;7.97;2.77;;;1.00;99.90;;;;;;2692628;53;20057;-39
2021/12/01 11:54:19;;;;;;;1.70;1.43;;;1.00;99.90;;;;;;2683520;53;20550;-36
2021/12/01 11:57:04;;;;;;;4.50;1.20;;;1.00;99.90;;;;;;2692896;53;20072;-40
2021/12/01 11:59:36;;;;;;;9.65;4.75;;;1.00;99.90;;;;;;2697473;53;20072;-43
2021/12/01 12:02:24;;;;;;;13.20;5.70;;;0.90;99.90;;;;;;2692182;53;20074;-44
2021/12/01 12:04:57;;;;;;;12.97;6.80;;;0.90;99.90;;;;;;2692637;53;20436;-42
2021/12/01 12:07:27;;;;;;;17.73;9.53;;;0.90;99.90;;;;;;2692575;53;20200;-38
2021/12/01 12:10:18;;;;;;;14.67;8.20;;;0.90;99.90;;;;;;2687786;53;20065;-37
2021/12/01 12:13:00;;;;;;;40.77;12.23;;;0.90;99.90;;;;;;2692781;53;20065;-37
2021/12/01 12:15:41;;;;;;;56.60;15.43;;;0.90;99.90;;;;;;2692558;53;20572;-41
2021/12/01 12:18:12;;;;;;;60.63;15.67;;;1.00;99.90;;;;;;2692401;53;20089;-38
2021/12/01 12:20:54;;;;;;;9.83;3.60;;;1.00;99.90;;;;;;2692453;53;20073;-38
2021/12/01 12:23:32;;;;;;;19.33;5.23;;;0.90;99.90;;;;;;2683566;53;20070;-38
2021/12/01 12:25:59;;;;;;;22.07;6.87;;;0.90;99.90;;;;;;2688046;53;20525;-37
2021/12/01 12:28:35;;;;;;;14.60;7.33;;;0.90;99.90;;;;;;2687445;53;20066;-36
2021/12/01 12:31:26;;;;;;;9.87;3.53;;;0.90;99.90;;;;;;2687714;53;20080;-49
2021/12/01 12:33:59;;;;;;;8.50;3.10;;;0.90;99.90;;;;;;2692650;53;20477;-41
2021/12/01 12:36:58;;;;;;;12.27;6.33;;;0.90;99.90;;;;;;2692405;53;20068;-43
2021/12/01 12:39:32;;;;;;;14.90;7.03;;;0.80;99.90;;;;;;2697383;53;20134;-38
2021/12/01 12:42:04;;;;;;;16.63;10.93;;;0.80;99.90;;;;;;2692396;53;20070;-51
2021/12/01 12:44:49;;;;;;;10.77;5.30;;;0.80;99.90;;;;;;2692539;53;20066;-47
2021/12/01 12:47:22;;;;;;;18.27;8.60;;;0.80;99.90;;;;;;2689646;53;20125;-46
2021/12/01 12:50:11;;;;;;;13.93;6.50;;;0.80;99.90;;;;;;2698080;53;20278;-48
2021/12/01 12:52:41;;;;;;;11.20;4.50;;;0.80;99.90;;;;;;2686032;53;20077;-50
2021/12/01 12:55:23;;;;;;;17.57;7.73;;;0.90;99.90;;;;;;2685756;53;20082;-54
2021/12/01 12:58:00;;;;;;;12.07;5.30;;;0.90;99.90;;;;;;2686023;53;20101;-45
2021/12/01 13:00:46;;;;;;;12.47;6.27;;;0.90;99.90;;;;;;2686044;53;20054;-41
2021/12/01 13:03:27;;;;;;;19.40;8.83;;;0.90;99.90;;;;;;2686113;53;20062;-41
2021/12/01 13:06:00;;;;;;;12.77;7.37;;;0.80;99.90;;;;;;2685631;53;20058;-46
2021/12/01 13:08:44;;;;;;;24.03;10.50;;;0.90;99.90;;;;;;2685862;53;20074;-54
2021/12/01 13:11:15;;;;;;;18.83;8.80;;;0.90;99.90;;;;;;2686116;53;20168;-51
2021/12/01 13:13:44;;;;;;;15.93;5.07;;;0.90;99.90;;;;;;2685830;53;20125;-59